Florencia — IBPD — position and weather

sailwx.info

Track history (hours):
 
Tides and Currents Weather Stations Pressure Air Temp Water Temp Dewpoint Dewpoint Depression Visibility Wind Speed Wind Dir Waves Ship Positions

Florencia

Last reported at 2016-Jul-28 02:33 UTC. Time now 2016-Jul-28 08:35 UTC.
Position N 38°53' E 015°20'.

Length 186 m; draft 6.4 m.

Type: Ship (hazmat cat C). MMSI: 247105900.

Date/timePositionNaut miles runAvg speedWind from/ knotsBaromVisibWave heightAir tempDewpointWater temp
2016-Jul-28 02:33N 38°53' E 015°20'2221.9
2016-Jul-28 01:33N 38°33' E 015°33'1918.9
2016-Jul-28 00:33N 38°16' E 015°42'2020.3
2016-Jul-27 23:33N 37°58' E 015°30'2120.9
2016-Jul-27 22:33N 37°39' E 015°19'1413.9
2016-Jul-27 21:32N 37°29' E 015°06'15 0.9
2016-Jul-27 05:29N 37°39' E 015°19'2122.1
2016-Jul-27 04:33N 37°58' E 015°30'2121.3
2016-Jul-27 03:34N 38°17' E 015°41'2121.3
2016-Jul-27 02:33N 38°37' E 015°29'2121.3
2016-Jul-27 01:33N 38°56' E 015°17'10821.5
2016-Jul-26 20:31N 40°34' E 014°17'107 6.1
2016-Jul-26 03:10N 38°58' E 015°17'1421.1
2016-Jul-26 02:30N 38°45' E 015°25'2021.3
2016-Jul-26 01:33N 38°27' E 015°37'1515.4
2016-Jul-26 00:33N 38°12' E 015°37'1918.5
2016-Jul-25 23:33N 37°54' E 015°28'2120.3
2016-Jul-25 22:32N 37°36' E 015°17'11 1.8
2016-Jul-25 16:29N 37°29' E 015°06'0 0.0
2016-Jul-25 15:33N 37°29' E 015°06'0 0.0
2016-Jul-25 14:18N 37°29' E 015°06'3 0.3
2016-Jul-25 04:29N 37°28' E 015°09'1920.8
2016-Jul-25 03:33N 37°45' E 015°22'2121.4
2016-Jul-25 02:33N 38°04' E 015°32'1919.0
2016-Jul-25 01:33N 38°23' E 015°38'2121.2
2016-Jul-25 00:33N 38°42' E 015°26'2120.8
2016-Jul-24 23:33N 39°01' E 015°15'2620.7
2016-Jul-24 22:18N 39°24' E 015°01'8720.7
2016-Jul-24 18:07N 40°44' E 014°17'6 3.9
2016-Jul-24 16:31N 40°50' E 014°16'0 0.0
2016-Jul-24 15:31N 40°50' E 014°16'0 0.0
2016-Jul-24 14:31N 40°50' E 014°16'0 0.0
2016-Jul-24 12:25N 40°50' E 014°16'0 0.0
2016-Jul-24 11:31N 40°50' E 014°16'0 0.0
2016-Jul-24 09:30N 40°50' E 014°16'2619.0
2016-Jul-24 08:07N 40°25' E 014°22'1221.3
2016-Jul-24 07:33N 40°14' E 014°29'2421.0
2016-Jul-24 06:26N 39°53' E 014°43'1921.4
2016-Jul-24 05:32N 39°35' E 014°54'2221.7
2016-Jul-24 04:31N 39°16' E 015°06'2121.8
2016-Jul-24 03:33N 38°57' E 015°18'2121.4
2016-Jul-24 02:33N 38°38' E 015°30'2121.4
2016-Jul-24 01:33N 38°19' E 015°43'1919.2
2016-Jul-24 00:34N 38°01' E 015°32'2121.0
2016-Jul-23 23:34N 37°42' E 015°21'1817.7
2016-Jul-23 22:32N 37°28' E 015°07'42 2.3
2016-Jul-23 04:33N 38°05' E 015°33'1716.8
2016-Jul-23 03:34N 38°21' E 015°39'2121.3
2016-Jul-23 02:33N 38°40' E 015°27'2121.6
2016-Jul-23 01:33N 38°59' E 015°15'2221.4
2016-Jul-23 00:32N 39°19' E 015°03'2521.3
2016-Jul-22 23:23N 39°41' E 014°49'1821.5
2016-Jul-22 22:33N 39°57' E 014°39'2222.1
2016-Jul-22 21:33N 40°17' E 014°27'2121.3
2016-Jul-22 20:33N 40°37' E 014°17'1313.3
2016-Jul-22 19:33N 40°50' E 014°16'0 0.0
2016-Jul-22 18:32N 40°50' E 014°16'0 0.0
2016-Jul-22 17:29N 40°50' E 014°16'0 0.0
2016-Jul-22 16:32N 40°50' E 014°16'0 0.0
2016-Jul-22 15:32N 40°50' E 014°16'0 0.0
2016-Jul-22 14:32N 40°50' E 014°16'0 0.0
2016-Jul-22 13:32N 40°50' E 014°16'0 0.0
2016-Jul-22 12:20N 40°50' E 014°16'0 0.0
2016-Jul-22 11:32N 40°50' E 014°16'0 0.0
2016-Jul-22 08:20N 40°50' E 014°16'5 2.0
2016-Jul-22 05:34N 40°45' E 014°17'4321.4
2016-Jul-22 03:34N 40°04' E 014°35'2221.7
2016-Jul-22 02:33N 39°45' E 014°47'3121.8
2016-Jul-22 01:08N 39°17' E 015°05'1322.0
2016-Jul-22 00:34N 39°06' E 015°12'2322.0
2016-Jul-21 23:31N 38°45' E 015°25'2121.7
2016-Jul-21 22:33N 38°27' E 015°38'1716.9
2016-Jul-21 21:33N 38°10' E 015°37'1817.7
2016-Jul-21 20:33N 37°54' E 015°28'2120.8
2016-Jul-21 19:33N 37°35' E 015°18'11 0.9
2016-Jul-21 07:29N 37°29' E 015°06'3 2.7
2016-Jul-21 06:28N 37°28' E 015°09'1920.7
2016-Jul-21 05:33N 37°44' E 015°22'2222.0
2016-Jul-21 04:33N 38°05' E 015°33'1616.3
2016-Jul-21 03:33N 38°20' E 015°40'2121.3
2016-Jul-21 02:33N 38°39' E 015°28'2121.2
2016-Jul-21 01:33N 38°58' E 015°16'2720.8
2016-Jul-21 00:15N 39°23' E 015°01'2021.0
2016-Jul-20 23:18N 39°41' E 014°50'5921.4
2016-Jul-20 20:33N 40°34' E 014°17'16 1.6
2016-Jul-20 10:33N 40°50' E 014°16'4 2.0
2016-Jul-20 08:33N 40°47' E 014°17'2120.9
2016-Jul-20 07:33N 40°26' E 014°22'10821.5
2016-Jul-20 02:32N 38°49' E 015°23'2121.2
2016-Jul-20 01:33N 38°30' E 015°35'1616.6
2016-Jul-20 00:33N 38°14' E 015°38'2020.3
2016-Jul-19 23:33N 37°55' E 015°28'2120.5
2016-Jul-19 22:33N 37°36' E 015°18'33 1.8
2016-Jul-19 04:34N 38°06' E 015°34'1616.0
2016-Jul-19 03:33N 38°22' E 015°39'2221.8
2016-Jul-19 02:33N 38°41' E 015°26'2621.9
2016-Jul-19 01:24N 39°04' E 015°12'6921.9
2016-Jul-18 22:15N 40°06' E 014°34'1521.9
2016-Jul-18 21:33N 40°20' E 014°25'2121.4
2016-Jul-18 20:33N 40°40' E 014°17'10 9.6
2016-Jul-18 19:30N 40°50' E 014°16'0 0.0
2016-Jul-18 18:24N 40°50' E 014°16'0 0.0
2016-Jul-18 17:33N 40°50' E 014°16'1 0.1
2016-Jul-18 05:32N 40°50' E 014°17'2020.5
2016-Jul-18 04:33N 40°30' E 014°19'  
Track history (hours):
 
Tides and Currents Weather Stations Pressure Air Temp Water Temp Dewpoint Dewpoint Depression Visibility Wind Speed Wind Dir Waves Ship Positions

Florencia

Last reported at 2016-Jul-28 02:33 UTC. Time now 2016-Jul-28 08:35 UTC.
Position N 38°53' E 015°20'.

Length 186 m; draft 6.4 m.

Type: Ship (hazmat cat C). MMSI: 247105900.

Date/timePositionNaut miles runAvg speedWind from/ knotsBaromVisibWave heightAir tempDewpointWater temp
2016-Jul-28 02:33N 38°53' E 015°20'2221.9
2016-Jul-28 01:33N 38°33' E 015°33'1918.9
2016-Jul-28 00:33N 38°16' E 015°42'2020.3
2016-Jul-27 23:33N 37°58' E 015°30'2120.9
2016-Jul-27 22:33N 37°39' E 015°19'1413.9
2016-Jul-27 21:32N 37°29' E 015°06'15 0.9
2016-Jul-27 05:29N 37°39' E 015°19'2122.1
2016-Jul-27 04:33N 37°58' E 015°30'2121.3
2016-Jul-27 03:34N 38°17' E 015°41'2121.3
2016-Jul-27 02:33N 38°37' E 015°29'2121.3
2016-Jul-27 01:33N 38°56' E 015°17'10821.5
2016-Jul-26 20:31N 40°34' E 014°17'107 6.1
2016-Jul-26 03:10N 38°58' E 015°17'1421.1
2016-Jul-26 02:30N 38°45' E 015°25'2021.3
2016-Jul-26 01:33N 38°27' E 015°37'1515.4
2016-Jul-26 00:33N 38°12' E 015°37'1918.5
2016-Jul-25 23:33N 37°54' E 015°28'2120.3
2016-Jul-25 22:32N 37°36' E 015°17'11 1.8
2016-Jul-25 16:29N 37°29' E 015°06'0 0.0
2016-Jul-25 15:33N 37°29' E 015°06'0 0.0
2016-Jul-25 14:18N 37°29' E 015°06'3 0.3
2016-Jul-25 04:29N 37°28' E 015°09'1920.8
2016-Jul-25 03:33N 37°45' E 015°22'2121.4
2016-Jul-25 02:33N 38°04' E 015°32'1919.0
2016-Jul-25 01:33N 38°23' E 015°38'2121.2
2016-Jul-25 00:33N 38°42' E 015°26'2120.8
2016-Jul-24 23:33N 39°01' E 015°15'2620.7
2016-Jul-24 22:18N 39°24' E 015°01'8720.7
2016-Jul-24 18:07N 40°44' E 014°17'6 3.9
2016-Jul-24 16:31N 40°50' E 014°16'0 0.0
2016-Jul-24 15:31N 40°50' E 014°16'0 0.0
2016-Jul-24 14:31N 40°50' E 014°16'0 0.0
2016-Jul-24 12:25N 40°50' E 014°16'0 0.0
2016-Jul-24 11:31N 40°50' E 014°16'0 0.0
2016-Jul-24 09:30N 40°50' E 014°16'2619.0
2016-Jul-24 08:07N 40°25' E 014°22'1221.3
2016-Jul-24 07:33N 40°14' E 014°29'2421.0
2016-Jul-24 06:26N 39°53' E 014°43'1921.4
2016-Jul-24 05:32N 39°35' E 014°54'2221.7
2016-Jul-24 04:31N 39°16' E 015°06'2121.8
2016-Jul-24 03:33N 38°57' E 015°18'2121.4
2016-Jul-24 02:33N 38°38' E 015°30'2121.4
2016-Jul-24 01:33N 38°19' E 015°43'1919.2
2016-Jul-24 00:34N 38°01' E 015°32'2121.0
2016-Jul-23 23:34N 37°42' E 015°21'1817.7
2016-Jul-23 22:32N 37°28' E 015°07'42 2.3
2016-Jul-23 04:33N 38°05' E 015°33'1716.8
2016-Jul-23 03:34N 38°21' E 015°39'2121.3
2016-Jul-23 02:33N 38°40' E 015°27'2121.6
2016-Jul-23 01:33N 38°59' E 015°15'2221.4
2016-Jul-23 00:32N 39°19' E 015°03'2521.3
2016-Jul-22 23:23N 39°41' E 014°49'1821.5
2016-Jul-22 22:33N 39°57' E 014°39'2222.1
2016-Jul-22 21:33N 40°17' E 014°27'2121.3
2016-Jul-22 20:33N 40°37' E 014°17'1313.3
2016-Jul-22 19:33N 40°50' E 014°16'0 0.0
2016-Jul-22 18:32N 40°50' E 014°16'0 0.0
2016-Jul-22 17:29N 40°50' E 014°16'0 0.0
2016-Jul-22 16:32N 40°50' E 014°16'0 0.0
2016-Jul-22 15:32N 40°50' E 014°16'0 0.0
2016-Jul-22 14:32N 40°50' E 014°16'0 0.0
2016-Jul-22 13:32N 40°50' E 014°16'0 0.0
2016-Jul-22 12:20N 40°50' E 014°16'0 0.0
2016-Jul-22 11:32N 40°50' E 014°16'0 0.0
2016-Jul-22 08:20N 40°50' E 014°16'5 2.0
2016-Jul-22 05:34N 40°45' E 014°17'4321.4
2016-Jul-22 03:34N 40°04' E 014°35'2221.7
2016-Jul-22 02:33N 39°45' E 014°47'3121.8
2016-Jul-22 01:08N 39°17' E 015°05'1322.0
2016-Jul-22 00:34N 39°06' E 015°12'2322.0
2016-Jul-21 23:31N 38°45' E 015°25'2121.7
2016-Jul-21 22:33N 38°27' E 015°38'1716.9
2016-Jul-21 21:33N 38°10' E 015°37'1817.7
2016-Jul-21 20:33N 37°54' E 015°28'2120.8
2016-Jul-21 19:33N 37°35' E 015°18'11 0.9
2016-Jul-21 07:29N 37°29' E 015°06'3 2.7
2016-Jul-21 06:28N 37°28' E 015°09'1920.7
2016-Jul-21 05:33N 37°44' E 015°22'2222.0
2016-Jul-21 04:33N 38°05' E 015°33'1616.3
2016-Jul-21 03:33N 38°20' E 015°40'2121.3
2016-Jul-21 02:33N 38°39' E 015°28'2121.2
2016-Jul-21 01:33N 38°58' E 015°16'2720.8
2016-Jul-21 00:15N 39°23' E 015°01'2021.0
2016-Jul-20 23:18N 39°41' E 014°50'5921.4
2016-Jul-20 20:33N 40°34' E 014°17'16 1.6
2016-Jul-20 10:33N 40°50' E 014°16'4 2.0
2016-Jul-20 08:33N 40°47' E 014°17'2120.9
2016-Jul-20 07:33N 40°26' E 014°22'10821.5
2016-Jul-20 02:32N 38°49' E 015°23'2121.2
2016-Jul-20 01:33N 38°30' E 015°35'1616.6
2016-Jul-20 00:33N 38°14' E 015°38'2020.3
2016-Jul-19 23:33N 37°55' E 015°28'2120.5
2016-Jul-19 22:33N 37°36' E 015°18'33 1.8
2016-Jul-19 04:34N 38°06' E 015°34'1616.0
2016-Jul-19 03:33N 38°22' E 015°39'2221.8
2016-Jul-19 02:33N 38°41' E 015°26'2621.9
2016-Jul-19 01:24N 39°04' E 015°12'6921.9
2016-Jul-18 22:15N 40°06' E 014°34'1521.9
2016-Jul-18 21:33N 40°20' E 014°25'2121.4
2016-Jul-18 20:33N 40°40' E 014°17'10 9.6
2016-Jul-18 19:30N 40°50' E 014°16'0 0.0
2016-Jul-18 18:24N 40°50' E 014°16'0 0.0
2016-Jul-18 17:33N 40°50' E 014°16'1 0.1
2016-Jul-18 05:32N 40°50' E 014°17'2020.5
2016-Jul-18 04:33N 40°30' E 014°19'  

Dump ship's entire track history